Search for airport 
image banner adimage banner adimage banner ad
image banner ad

2PS4 - Wgal-Tv

Located in Lancaster, United States

ICAO - 2PS4, IATA -

Data provided by Airmate  

General information

Coordinates: N40°2'13" W76°20'16"
Elevation is 360 feet MSL.
Magnetic variation is -10° East
View others Airports in Pennsylvania

Operational data

Special qualification required
Current time UTC:
Current local time:
Weather at : KLNS - Lancaster ( 10 km )
METAR: KLNS 071153Z 10003KT 10SM FEW110 10/02 A2992 RMK AO2 SLP131 T01000022 10100 20056 53000
TAF: KLNS 071127Z 0712/0812 10006KT P6SM SCT100 BKN250 FM071500 14007KT P6SM OVC100 FM071900 VRB05KT 6SM -RA OVC050 FM072300 31005KT 5SM -RA BR OVC035 FM080700 26006KT P6SM BKN035
View NOTAMs / SUP AIP / TFR affecting this airport [VIEW]
Communications frequencies: [VIEW]

Runways:

Airport contact information

Address: Lancaster United States

Satellite view of 2PS4